createdAt,value
2022-07-30T00:01:15.323Z,78.9
2022-07-30T00:06:50.877Z,78.9
2022-07-30T00:12:25.516Z,79
2022-07-30T00:18:22.791Z,78.9
2022-07-30T00:24:02.643Z,79
2022-07-30T00:29:45.110Z,79
2022-07-30T00:35:21.065Z,78.9
2022-07-30T00:41:02.090Z,79
2022-07-30T00:46:37.241Z,78.9
2022-07-30T00:52:12.118Z,79.1
2022-07-30T00:57:47.347Z,79.3
2022-07-30T01:03:22.122Z,79.5
2022-07-30T01:08:56.958Z,79.6
2022-07-30T01:14:31.761Z,79.8
2022-07-30T01:20:08.292Z,79.8
2022-07-30T01:25:43.277Z,79.8
2022-07-30T01:31:19.306Z,79.8
2022-07-30T01:36:54.576Z,79.8
2022-07-30T01:42:29.574Z,79.8
2022-07-30T01:48:04.512Z,79.7
2022-07-30T01:53:39.282Z,79.9
2022-07-30T01:59:14.626Z,79.9
2022-07-30T02:04:50.465Z,79.9
2022-07-30T02:10:25.482Z,79.9
2022-07-30T02:16:00.865Z,80
2022-07-30T02:21:37.518Z,80.2
2022-07-30T02:27:12.579Z,80.2
2022-07-30T02:32:48.542Z,80.3
2022-07-30T02:38:23.528Z,80.5
2022-07-30T02:43:58.615Z,80.5
2022-07-30T02:49:33.528Z,80.7
2022-07-30T02:55:08.337Z,80.7
2022-07-30T03:00:43.705Z,80.7
2022-07-30T03:06:19.108Z,80.8
2022-07-30T03:11:54.007Z,80.8
2022-07-30T03:17:50.840Z,80.7
2022-07-30T03:23:23.458Z,80.8
2022-07-30T03:28:59.112Z,80.8
2022-07-30T03:34:35.498Z,80.8
2022-07-30T03:40:10.442Z,80.9
2022-07-30T03:45:45.304Z,80.9
2022-07-30T03:51:21.203Z,81
2022-07-30T03:56:57.347Z,81.2
2022-07-30T04:02:35.446Z,81.3
2022-07-30T04:08:10.251Z,81.3
2022-07-30T04:13:45.126Z,81.4
2022-07-30T04:19:41.770Z,81.4
2022-07-30T04:25:24.892Z,81.5
2022-07-30T04:31:00.833Z,81.6
2022-07-30T04:36:36.004Z,81.7
2022-07-30T04:42:11.000Z,81.8
2022-07-30T04:47:46.584Z,82
2022-07-30T04:53:22.231Z,82.1
2022-07-30T04:58:56.985Z,82.1
2022-07-30T05:04:33.540Z,82.2
2022-07-30T05:10:08.370Z,82.3
2022-07-30T05:15:43.285Z,82.4
2022-07-30T05:21:19.646Z,82.5
2022-07-30T05:26:54.652Z,82.6
2022-07-30T05:32:31.764Z,82.6
2022-07-30T05:38:07.341Z,82.8
2022-07-30T05:43:42.117Z,82.7
2022-07-30T05:49:30.919Z,83
2022-07-30T05:55:07.047Z,83
2022-07-30T06:00:41.995Z,83.2
2022-07-30T06:06:23.481Z,83.2
2022-07-30T06:11:58.984Z,83.1
2022-07-30T06:18:02.656Z,83
2022-07-30T06:23:39.036Z,83.1
2022-07-30T06:29:14.056Z,84
2022-07-30T06:35:04.474Z,83.9
2022-07-30T06:40:40.362Z,84.2
2022-07-30T06:46:15.662Z,83.2
2022-07-30T06:51:51.082Z,83.5
2022-07-30T06:57:25.931Z,83.1
2022-07-30T07:03:00.824Z,83
2022-07-30T07:08:35.672Z,83.4
2022-07-30T07:14:13.466Z,82.7
2022-07-30T07:20:02.839Z,82
2022-07-30T07:25:38.016Z,81.2
2022-07-30T07:32:08.030Z,80.7
2022-07-30T07:37:45.277Z,79.4
2022-07-30T07:43:21.249Z,78.4
2022-07-30T07:48:56.140Z,76
2022-07-30T07:54:31.283Z,73.6
2022-07-30T08:00:07.255Z,72.8
2022-07-30T08:06:06.837Z,71.1
2022-07-30T08:11:50.959Z,70.6
2022-07-30T08:17:47.375Z,70.9
2022-07-30T08:23:19.985Z,73.4
2022-07-30T08:28:57.789Z,72.6
2022-07-30T08:34:35.348Z,72.5
2022-07-30T08:40:10.296Z,72.7
2022-07-30T08:45:45.388Z,72.3
2022-07-30T08:51:21.047Z,70.6
2022-07-30T08:56:56.020Z,66.8
2022-07-30T09:02:30.862Z,65.4
2022-07-30T09:08:09.386Z,65.2
2022-07-30T09:13:44.330Z,65.3
2022-07-30T09:19:42.034Z,66.5
2022-07-30T09:25:14.825Z,66.6
2022-07-30T09:30:49.723Z,65.2
2022-07-30T09:36:24.495Z,63.6
2022-07-30T09:42:00.435Z,64.7
2022-07-30T09:47:40.302Z,63.1
2022-07-30T09:53:16.091Z,62.7
2022-07-30T09:58:53.123Z,60.7
2022-07-30T10:04:31.963Z,60.3
2022-07-30T10:10:09.433Z,62.8
2022-07-30T10:15:45.869Z,62.3
2022-07-30T10:21:25.897Z,61.2
2022-07-30T10:27:06.505Z,60.7
2022-07-30T10:32:52.821Z,61.9
2022-07-30T10:38:29.099Z,59
2022-07-30T10:44:03.941Z,58.7
2022-07-30T10:49:43.204Z,57.4
2022-07-30T10:55:39.562Z,58.5
2022-07-30T11:01:18.843Z,62.6
2022-07-30T11:06:58.797Z,62.9
2022-07-30T11:12:34.751Z,61.4
2022-07-30T11:18:13.880Z,59.6
2022-07-30T11:23:56.687Z,58.8
2022-07-30T11:29:33.570Z,58
2022-07-30T11:35:08.974Z,54
2022-07-30T11:40:46.299Z,57
2022-07-30T11:46:29.976Z,58.1
2022-07-30T11:52:06.033Z,55.5
2022-07-30T11:57:40.851Z,51.7
2022-07-30T12:03:15.952Z,50.2
2022-07-30T12:08:58.654Z,51.5
2022-07-30T12:14:34.972Z,54.1
2022-07-30T12:20:10.304Z,51.6
2022-07-30T12:25:51.297Z,51.5
2022-07-30T12:31:27.856Z,48.5
2022-07-30T12:37:03.810Z,56.6
2022-07-30T12:42:40.143Z,59.7
2022-07-30T12:48:16.985Z,61.3
2022-07-30T12:53:52.470Z,61.6
2022-07-30T12:59:28.391Z,62.4
2022-07-30T13:05:12.175Z,63.1
2022-07-30T13:10:47.167Z,64.1
2022-07-30T13:16:43.995Z,64.4
2022-07-30T13:22:16.674Z,64.9
2022-07-30T13:27:51.420Z,64.3
2022-07-30T13:33:27.182Z,64
2022-07-30T13:39:02.480Z,63.6
2022-07-30T13:44:37.264Z,64.2
2022-07-30T13:50:12.948Z,64.1
2022-07-30T13:55:47.762Z,65
2022-07-30T14:01:22.615Z,63.5
2022-07-30T14:06:58.615Z,63.7
2022-07-30T14:12:35.662Z,64
2022-07-30T14:18:32.491Z,63.9
2022-07-30T14:24:08.500Z,64.1
2022-07-30T14:29:43.679Z,64.8
2022-07-30T14:35:18.856Z,63.9
2022-07-30T14:40:53.930Z,63.7
2022-07-30T14:46:52.907Z,63.9
2022-07-30T14:52:29.253Z,64.8
2022-07-30T14:58:12.273Z,65.1
2022-07-30T15:03:46.998Z,65.5
2022-07-30T15:09:22.214Z,66.1
2022-07-30T15:14:57.862Z,66.6
2022-07-30T15:20:37.465Z,66.8
2022-07-30T15:26:12.259Z,66.9
2022-07-30T15:31:47.230Z,66.9
2022-07-30T15:37:22.643Z,66.8
2022-07-30T15:42:57.353Z,66.5
2022-07-30T15:48:32.117Z,66.5
2022-07-30T15:54:07.983Z,66
2022-07-30T15:59:43.725Z,65.7
2022-07-30T16:05:18.755Z,66
2022-07-30T16:10:53.615Z,66.1
2022-07-30T16:16:50.128Z,66.2
2022-07-30T16:22:24.483Z,66.4
2022-07-30T16:28:00.234Z,66.4
2022-07-30T16:33:35.005Z,65.9
2022-07-30T16:39:14.690Z,65.5
2022-07-30T16:44:50.553Z,65.2
2022-07-30T16:50:25.462Z,65.4
2022-07-30T16:56:00.276Z,64.9
2022-07-30T17:01:35.549Z,64.8
2022-07-30T17:07:11.220Z,65.1
2022-07-30T17:12:51.377Z,65.5
2022-07-30T17:18:47.979Z,65.8
2022-07-30T17:24:21.259Z,66.3
2022-07-30T17:29:57.628Z,66.4
2022-07-30T17:35:34.433Z,66.7
2022-07-30T17:41:13.893Z,66.7
2022-07-30T17:46:48.956Z,67
2022-07-30T17:52:27.416Z,67.1
2022-07-30T17:58:02.588Z,65.3
2022-07-30T18:03:45.354Z,64.8
2022-07-30T18:09:21.210Z,65.6
2022-07-30T18:14:56.008Z,65.6
2022-07-30T18:20:30.774Z,66.6
2022-07-30T18:26:05.659Z,67.4
2022-07-30T18:31:44.844Z,67.4
2022-07-30T18:37:20.698Z,67.7
2022-07-30T18:42:56.477Z,68.7
2022-07-30T18:48:31.195Z,70.9
2022-07-30T18:54:06.875Z,71.6
2022-07-30T18:59:41.731Z,72.5
2022-07-30T19:05:19.022Z,74.3
2022-07-30T19:10:58.988Z,73.5
2022-07-30T19:17:00.359Z,74.3
2022-07-30T19:22:35.119Z,75.4
2022-07-30T19:28:12.223Z,76.1
2022-07-30T19:33:50.355Z,77.6
2022-07-30T19:39:35.272Z,77.1
2022-07-30T19:45:13.111Z,78.2
2022-07-30T19:50:50.754Z,78
2022-07-30T19:56:26.527Z,77.2
2022-07-30T20:02:02.132Z,77.1
2022-07-30T20:07:45.285Z,78.3
2022-07-30T20:13:46.098Z,77.7
2022-07-30T20:19:48.658Z,78.5
2022-07-30T20:25:25.238Z,79.9
2022-07-30T20:31:02.543Z,78.8
2022-07-30T20:36:40.170Z,78.4
2022-07-30T20:42:23.750Z,79.1
2022-07-30T20:47:59.255Z,81.7
2022-07-30T20:53:37.322Z,83
2022-07-30T20:59:12.395Z,83
2022-07-30T21:04:49.170Z,83.6
2022-07-30T21:10:25.603Z,83.7
2022-07-30T21:16:03.797Z,81.5
2022-07-30T21:21:52.481Z,80.7
2022-07-30T21:27:30.400Z,80.4
2022-07-30T21:33:05.511Z,80
2022-07-30T21:38:42.809Z,79.8
2022-07-30T21:44:18.878Z,79.6
2022-07-30T21:49:59.895Z,79.4
2022-07-30T21:55:53.544Z,79.6
2022-07-30T22:01:33.318Z,79.3
2022-07-30T22:07:26.900Z,79.1
2022-07-30T22:13:04.221Z,79.2
2022-07-30T22:19:02.598Z,79.1
2022-07-30T22:24:38.401Z,79.1
2022-07-30T22:30:14.175Z,79.1
2022-07-30T22:35:50.480Z,79.4
2022-07-30T22:41:25.541Z,79.7
2022-07-30T22:47:21.299Z,79.5
2022-07-30T22:54:12.652Z,79.7
2022-07-30T23:00:01.106Z,79.9
2022-07-30T23:05:56.987Z,80.1
2022-07-30T23:11:38.236Z,80.1
2022-07-30T23:17:35.109Z,79.9
2022-07-30T23:23:07.776Z,79.9
2022-07-30T23:28:44.460Z,80
2022-07-30T23:34:20.623Z,80
2022-07-30T23:39:55.470Z,79.9
2022-07-30T23:45:30.291Z,79.9
2022-07-30T23:51:05.836Z,80.3
2022-07-30T23:56:41.689Z,80.1
